sensor_id;sensor_type;location;lat;lon;timestamp;P1;durP1;ratioP1;P2;durP2;ratioP2
16600;SDS011;34891;48.164;11.572;2022-10-28T00:00:29;5.70;;;2.47;;
16600;SDS011;34891;48.164;11.572;2022-10-28T00:05:32;7.78;;;2.67;;
16600;SDS011;34891;48.164;11.572;2022-10-28T00:10:35;6.72;;;3.00;;
16600;SDS011;34891;48.164;11.572;2022-10-28T00:15:39;6.30;;;2.50;;
16600;SDS011;34891;48.164;11.572;2022-10-28T00:20:42;7.10;;;2.65;;
16600;SDS011;34891;48.164;11.572;2022-10-28T00:25:45;10.45;;;2.70;;
16600;SDS011;34891;48.164;11.572;2022-10-28T00:30:48;7.70;;;2.58;;
16600;SDS011;34891;48.164;11.572;2022-10-28T00:35:52;6.20;;;2.22;;
16600;SDS011;34891;48.164;11.572;2022-10-28T00:40:56;7.07;;;2.50;;
16600;SDS011;34891;48.164;11.572;2022-10-28T00:46:00;6.60;;;2.25;;
16600;SDS011;34891;48.164;11.572;2022-10-28T00:51:03;5.47;;;1.52;;
16600;SDS011;34891;48.164;11.572;2022-10-28T00:56:05;6.55;;;1.77;;
16600;SDS011;34891;48.164;11.572;2022-10-28T01:01:10;3.73;;;1.70;;
16600;SDS011;34891;48.164;11.572;2022-10-28T01:16:39;3.95;;;1.50;;
16600;SDS011;34891;48.164;11.572;2022-10-28T01:32:22;6.13;;;1.88;;
16600;SDS011;34891;48.164;11.572;2022-10-28T01:37:29;2.17;;;1.27;;
16600;SDS011;34891;48.164;11.572;2022-10-28T01:42:34;5.63;;;1.88;;
16600;SDS011;34891;48.164;11.572;2022-10-28T01:47:43;3.90;;;1.70;;
16600;SDS011;34891;48.164;11.572;2022-10-28T01:52:46;4.97;;;1.80;;
16600;SDS011;34891;48.164;11.572;2022-10-28T01:57:52;5.63;;;1.63;;
16600;SDS011;34891;48.164;11.572;2022-10-28T02:02:57;5.97;;;1.80;;
16600;SDS011;34891;48.164;11.572;2022-10-28T02:08:02;5.07;;;1.90;;
16600;SDS011;34891;48.164;11.572;2022-10-28T02:13:06;5.05;;;1.98;;
16600;SDS011;34891;48.164;11.572;2022-10-28T02:18:23;5.68;;;2.08;;
16600;SDS011;34891;48.164;11.572;2022-10-28T02:23:30;6.22;;;1.90;;
16600;SDS011;34891;48.164;11.572;2022-10-28T02:28:38;4.97;;;2.10;;
16600;SDS011;34891;48.164;11.572;2022-10-28T02:38:46;8.82;;;1.88;;
16600;SDS011;34891;48.164;11.572;2022-10-28T02:43:52;4.93;;;2.03;;
16600;SDS011;34891;48.164;11.572;2022-10-28T02:48:57;6.60;;;1.98;;
16600;SDS011;34891;48.164;11.572;2022-10-28T02:54:02;7.22;;;2.40;;
16600;SDS011;34891;48.164;11.572;2022-10-28T02:59:07;6.22;;;1.90;;
16600;SDS011;34891;48.164;11.572;2022-10-28T03:04:11;6.18;;;2.17;;
16600;SDS011;34891;48.164;11.572;2022-10-28T03:09:16;3.35;;;1.60;;
16600;SDS011;34891;48.164;11.572;2022-10-28T03:19:21;6.22;;;1.38;;
16600;SDS011;34891;48.164;11.572;2022-10-28T03:24:25;9.32;;;2.05;;
16600;SDS011;34891;48.164;11.572;2022-10-28T03:29:27;3.88;;;1.67;;
16600;SDS011;34891;48.164;11.572;2022-10-28T03:34:30;9.88;;;2.25;;
16600;SDS011;34891;48.164;11.572;2022-10-28T03:39:35;2.63;;;1.60;;
16600;SDS011;34891;48.164;11.572;2022-10-28T03:49:40;2.42;;;1.52;;
16600;SDS011;34891;48.164;11.572;2022-10-28T03:54:44;5.20;;;1.80;;
16600;SDS011;34891;48.164;11.572;2022-10-28T04:04:49;4.88;;;1.65;;
16600;SDS011;34891;48.164;11.572;2022-10-28T04:09:53;4.70;;;1.73;;
16600;SDS011;34891;48.164;11.572;2022-10-28T04:14:55;5.57;;;1.50;;
16600;SDS011;34891;48.164;11.572;2022-10-28T04:19:58;4.50;;;1.67;;
16600;SDS011;34891;48.164;11.572;2022-10-28T04:25:02;3.90;;;1.88;;
16600;SDS011;34891;48.164;11.572;2022-10-28T04:30:06;5.50;;;1.40;;
16600;SDS011;34891;48.164;11.572;2022-10-28T04:35:08;7.15;;;4.35;;
16600;SDS011;34891;48.164;11.572;2022-10-28T04:40:13;3.63;;;1.53;;
16600;SDS011;34891;48.164;11.572;2022-10-28T04:45:15;5.95;;;1.45;;
16600;SDS011;34891;48.164;11.572;2022-10-28T04:50:18;3.95;;;1.60;;
16600;SDS011;34891;48.164;11.572;2022-10-28T04:55:23;6.22;;;1.48;;
16600;SDS011;34891;48.164;11.572;2022-10-28T05:00:26;7.90;;;1.77;;
16600;SDS011;34891;48.164;11.572;2022-10-28T05:05:29;3.47;;;1.63;;
16600;SDS011;34891;48.164;11.572;2022-10-28T05:10:33;3.22;;;1.48;;
16600;SDS011;34891;48.164;11.572;2022-10-28T05:15:36;7.25;;;1.85;;
16600;SDS011;34891;48.164;11.572;2022-10-28T05:20:38;6.97;;;1.70;;
16600;SDS011;34891;48.164;11.572;2022-10-28T05:25:42;3.95;;;1.50;;
16600;SDS011;34891;48.164;11.572;2022-10-28T05:30:45;5.00;;;1.65;;
16600;SDS011;34891;48.164;11.572;2022-10-28T05:35:48;31.77;;;2.35;;
16600;SDS011;34891;48.164;11.572;2022-10-28T05:40:52;7.88;;;1.90;;
16600;SDS011;34891;48.164;11.572;2022-10-28T05:50:57;9.05;;;1.75;;
16600;SDS011;34891;48.164;11.572;2022-10-28T05:56:03;8.55;;;1.73;;
16600;SDS011;34891;48.164;11.572;2022-10-28T06:01:06;9.05;;;2.05;;
16600;SDS011;34891;48.164;11.572;2022-10-28T06:06:09;9.70;;;1.83;;
16600;SDS011;34891;48.164;11.572;2022-10-28T06:11:13;4.43;;;1.67;;
16600;SDS011;34891;48.164;11.572;2022-10-28T06:21:19;9.50;;;2.58;;
16600;SDS011;34891;48.164;11.572;2022-10-28T06:26:23;7.40;;;2.15;;
16600;SDS011;34891;48.164;11.572;2022-10-28T06:31:26;10.63;;;2.35;;
16600;SDS011;34891;48.164;11.572;2022-10-28T06:36:28;5.07;;;2.13;;
16600;SDS011;34891;48.164;11.572;2022-10-28T06:41:32;15.10;;;3.38;;
16600;SDS011;34891;48.164;11.572;2022-10-28T06:46:35;9.85;;;3.17;;
16600;SDS011;34891;48.164;11.572;2022-10-28T06:51:38;11.63;;;3.38;;
16600;SDS011;34891;48.164;11.572;2022-10-28T06:56:42;12.23;;;3.00;;
16600;SDS011;34891;48.164;11.572;2022-10-28T07:01:46;12.68;;;3.75;;
16600;SDS011;34891;48.164;11.572;2022-10-28T07:06:53;14.52;;;3.30;;
16600;SDS011;34891;48.164;11.572;2022-10-28T07:11:57;16.27;;;3.72;;
16600;SDS011;34891;48.164;11.572;2022-10-28T07:17:05;10.73;;;3.83;;
16600;SDS011;34891;48.164;11.572;2022-10-28T07:22:08;17.07;;;3.77;;
16600;SDS011;34891;48.164;11.572;2022-10-28T07:27:12;13.07;;;4.03;;
16600;SDS011;34891;48.164;11.572;2022-10-28T07:32:15;13.65;;;4.20;;
16600;SDS011;34891;48.164;11.572;2022-10-28T07:37:17;16.05;;;4.43;;
16600;SDS011;34891;48.164;11.572;2022-10-28T07:47:24;12.75;;;4.45;;
16600;SDS011;34891;48.164;11.572;2022-10-28T07:52:27;12.40;;;4.05;;
16600;SDS011;34891;48.164;11.572;2022-10-28T07:57:29;14.55;;;3.60;;
16600;SDS011;34891;48.164;11.572;2022-10-28T08:02:33;9.77;;;3.58;;
16600;SDS011;34891;48.164;11.572;2022-10-28T08:07:36;10.15;;;3.60;;
16600;SDS011;34891;48.164;11.572;2022-10-28T08:12:39;9.20;;;3.30;;
16600;SDS011;34891;48.164;11.572;2022-10-28T08:17:43;12.00;;;3.65;;
16600;SDS011;34891;48.164;11.572;2022-10-28T08:22:52;13.55;;;3.83;;
16600;SDS011;34891;48.164;11.572;2022-10-28T08:27:55;6.53;;;2.83;;
16600;SDS011;34891;48.164;11.572;2022-10-28T08:32:59;9.82;;;3.25;;
16600;SDS011;34891;48.164;11.572;2022-10-28T08:38:02;4.95;;;1.92;;
16600;SDS011;34891;48.164;11.572;2022-10-28T08:43:07;4.47;;;1.90;;
16600;SDS011;34891;48.164;11.572;2022-10-28T08:48:17;6.65;;;2.00;;
16600;SDS011;34891;48.164;11.572;2022-10-28T08:53:24;5.85;;;2.13;;
16600;SDS011;34891;48.164;11.572;2022-10-28T08:58:27;4.20;;;1.70;;
16600;SDS011;34891;48.164;11.572;2022-10-28T09:03:36;3.60;;;1.70;;
16600;SDS011;34891;48.164;11.572;2022-10-28T09:08:40;6.05;;;1.63;;
16600;SDS011;34891;48.164;11.572;2022-10-28T09:13:51;5.70;;;2.60;;
16600;SDS011;34891;48.164;11.572;2022-10-28T09:18:57;4.75;;;1.80;;
16600;SDS011;34891;48.164;11.572;2022-10-28T09:24:06;7.53;;;1.80;;
16600;SDS011;34891;48.164;11.572;2022-10-28T09:29:17;4.35;;;1.80;;
16600;SDS011;34891;48.164;11.572;2022-10-28T09:34:26;3.88;;;1.90;;
16600;SDS011;34891;48.164;11.572;2022-10-28T09:39:33;6.78;;;2.53;;
16600;SDS011;34891;48.164;11.572;2022-10-28T09:44:38;6.00;;;2.05;;
16600;SDS011;34891;48.164;11.572;2022-10-28T09:49:44;8.88;;;2.03;;
16600;SDS011;34891;48.164;11.572;2022-10-28T09:54:49;5.22;;;2.03;;
16600;SDS011;34891;48.164;11.572;2022-10-28T09:59:52;6.32;;;2.70;;
16600;SDS011;34891;48.164;11.572;2022-10-28T10:05:10;4.75;;;2.45;;
16600;SDS011;34891;48.164;11.572;2022-10-28T10:10:20;5.68;;;2.28;;
16600;SDS011;34891;48.164;11.572;2022-10-28T10:15:26;5.43;;;2.28;;
16600;SDS011;34891;48.164;11.572;2022-10-28T10:20:44;2.67;;;1.83;;
16600;SDS011;34891;48.164;11.572;2022-10-28T10:25:52;6.05;;;2.15;;
16600;SDS011;34891;48.164;11.572;2022-10-28T10:30:55;6.47;;;2.20;;
16600;SDS011;34891;48.164;11.572;2022-10-28T10:36:02;6.65;;;2.70;;
16600;SDS011;34891;48.164;11.572;2022-10-28T10:41:06;4.88;;;2.55;;
16600;SDS011;34891;48.164;11.572;2022-10-28T10:46:12;4.07;;;1.98;;
16600;SDS011;34891;48.164;11.572;2022-10-28T10:51:20;5.68;;;1.88;;
16600;SDS011;34891;48.164;11.572;2022-10-28T10:56:24;5.03;;;1.20;;
16600;SDS011;34891;48.164;11.572;2022-10-28T11:01:27;4.97;;;1.45;;
16600;SDS011;34891;48.164;11.572;2022-10-28T11:06:35;5.05;;;1.35;;
16600;SDS011;34891;48.164;11.572;2022-10-28T11:11:39;7.13;;;1.83;;
16600;SDS011;34891;48.164;11.572;2022-10-28T11:16:45;7.60;;;1.98;;
16600;SDS011;34891;48.164;11.572;2022-10-28T11:21:54;5.00;;;1.80;;
16600;SDS011;34891;48.164;11.572;2022-10-28T11:27:00;5.07;;;1.70;;
16600;SDS011;34891;48.164;11.572;2022-10-28T11:32:14;3.33;;;1.83;;
16600;SDS011;34891;48.164;11.572;2022-10-28T11:37:21;6.25;;;2.00;;
16600;SDS011;34891;48.164;11.572;2022-10-28T11:42:31;4.22;;;1.85;;
16600;SDS011;34891;48.164;11.572;2022-10-28T11:47:37;7.15;;;1.88;;
16600;SDS011;34891;48.164;11.572;2022-10-28T11:52:48;4.57;;;2.05;;
16600;SDS011;34891;48.164;11.572;2022-10-28T11:57:58;8.63;;;2.10;;
16600;SDS011;34891;48.164;11.572;2022-10-28T12:03:14;4.47;;;2.08;;
16600;SDS011;34891;48.164;11.572;2022-10-28T12:08:26;6.35;;;2.17;;
16600;SDS011;34891;48.164;11.572;2022-10-28T12:13:33;2.60;;;1.75;;
16600;SDS011;34891;48.164;11.572;2022-10-28T12:18:42;6.68;;;1.75;;
16600;SDS011;34891;48.164;11.572;2022-10-28T12:23:47;3.72;;;1.90;;
16600;SDS011;34891;48.164;11.572;2022-10-28T12:28:51;2.15;;;1.30;;
16600;SDS011;34891;48.164;11.572;2022-10-28T12:33:55;6.05;;;2.00;;
16600;SDS011;34891;48.164;11.572;2022-10-28T12:39:01;8.63;;;2.40;;
16600;SDS011;34891;48.164;11.572;2022-10-28T12:44:07;5.55;;;1.70;;
16600;SDS011;34891;48.164;11.572;2022-10-28T12:49:13;6.15;;;1.52;;
16600;SDS011;34891;48.164;11.572;2022-10-28T12:54:22;4.78;;;1.30;;
16600;SDS011;34891;48.164;11.572;2022-10-28T12:59:28;6.32;;;1.63;;
16600;SDS011;34891;48.164;11.572;2022-10-28T13:04:32;2.20;;;1.00;;
16600;SDS011;34891;48.164;11.572;2022-10-28T13:09:45;3.47;;;1.70;;
16600;SDS011;34891;48.164;11.572;2022-10-28T13:14:52;4.20;;;1.08;;
16600;SDS011;34891;48.164;11.572;2022-10-28T13:20:05;5.70;;;1.50;;
16600;SDS011;34891;48.164;11.572;2022-10-28T13:25:19;3.65;;;1.50;;
16600;SDS011;34891;48.164;11.572;2022-10-28T13:30:24;2.30;;;1.40;;
16600;SDS011;34891;48.164;11.572;2022-10-28T13:35:27;2.22;;;1.42;;
16600;SDS011;34891;48.164;11.572;2022-10-28T13:46:09;5.47;;;1.77;;
16600;SDS011;34891;48.164;11.572;2022-10-28T13:51:42;4.00;;;1.40;;
16600;SDS011;34891;48.164;11.572;2022-10-28T13:56:46;9.10;;;1.80;;
16600;SDS011;34891;48.164;11.572;2022-10-28T14:01:52;1.80;;;1.35;;
16600;SDS011;34891;48.164;11.572;2022-10-28T14:07:20;5.38;;;1.50;;
16600;SDS011;34891;48.164;11.572;2022-10-28T14:12:24;4.82;;;1.42;;
16600;SDS011;34891;48.164;11.572;2022-10-28T14:17:32;4.57;;;1.60;;
16600;SDS011;34891;48.164;11.572;2022-10-28T14:22:35;7.78;;;2.20;;
16600;SDS011;34891;48.164;11.572;2022-10-28T14:27:39;5.32;;;1.92;;
16600;SDS011;34891;48.164;11.572;2022-10-28T14:32:44;6.32;;;1.73;;
16600;SDS011;34891;48.164;11.572;2022-10-28T14:43:20;5.03;;;1.70;;
16600;SDS011;34891;48.164;11.572;2022-10-28T14:53:53;5.30;;;1.75;;
16600;SDS011;34891;48.164;11.572;2022-10-28T14:58:59;6.13;;;1.83;;
16600;SDS011;34891;48.164;11.572;2022-10-28T15:04:05;8.30;;;1.70;;
16600;SDS011;34891;48.164;11.572;2022-10-28T15:09:16;6.07;;;1.42;;
16600;SDS011;34891;48.164;11.572;2022-10-28T15:14:23;7.40;;;1.60;;
16600;SDS011;34891;48.164;11.572;2022-10-28T15:19:27;4.45;;;1.65;;
16600;SDS011;34891;48.164;11.572;2022-10-28T15:24:32;8.20;;;2.00;;
16600;SDS011;34891;48.164;11.572;2022-10-28T15:29:34;3.95;;;1.98;;
16600;SDS011;34891;48.164;11.572;2022-10-28T15:34:37;3.58;;;1.50;;
16600;SDS011;34891;48.164;11.572;2022-10-28T15:39:42;7.22;;;2.38;;
16600;SDS011;34891;48.164;11.572;2022-10-28T15:44:46;10.35;;;1.67;;
16600;SDS011;34891;48.164;11.572;2022-10-28T15:49:56;6.53;;;1.90;;
16600;SDS011;34891;48.164;11.572;2022-10-28T15:55:01;8.88;;;2.40;;
16600;SDS011;34891;48.164;11.572;2022-10-28T16:00:16;4.70;;;1.80;;
16600;SDS011;34891;48.164;11.572;2022-10-28T16:05:41;6.03;;;2.10;;
16600;SDS011;34891;48.164;11.572;2022-10-28T16:10:45;7.20;;;2.35;;
16600;SDS011;34891;48.164;11.572;2022-10-28T16:15:50;8.90;;;3.38;;
16600;SDS011;34891;48.164;11.572;2022-10-28T16:20:55;8.52;;;2.67;;
16600;SDS011;34891;48.164;11.572;2022-10-28T16:25:59;6.60;;;2.45;;
16600;SDS011;34891;48.164;11.572;2022-10-28T16:31:07;5.93;;;2.25;;
16600;SDS011;34891;48.164;11.572;2022-10-28T16:36:13;6.97;;;2.53;;
16600;SDS011;34891;48.164;11.572;2022-10-28T16:41:17;9.53;;;3.77;;
16600;SDS011;34891;48.164;11.572;2022-10-28T16:46:20;9.48;;;3.10;;
16600;SDS011;34891;48.164;11.572;2022-10-28T16:51:23;6.50;;;3.07;;
16600;SDS011;34891;48.164;11.572;2022-10-28T16:56:27;9.07;;;3.40;;
16600;SDS011;34891;48.164;11.572;2022-10-28T17:01:29;11.88;;;4.07;;
16600;SDS011;34891;48.164;11.572;2022-10-28T17:06:32;13.07;;;3.63;;
16600;SDS011;34891;48.164;11.572;2022-10-28T17:11:36;8.18;;;2.88;;
16600;SDS011;34891;48.164;11.572;2022-10-28T17:16:39;5.38;;;2.72;;
16600;SDS011;34891;48.164;11.572;2022-10-28T17:21:43;6.43;;;2.40;;
16600;SDS011;34891;48.164;11.572;2022-10-28T17:26:47;4.90;;;2.40;;
16600;SDS011;34891;48.164;11.572;2022-10-28T17:31:57;7.82;;;3.20;;
16600;SDS011;34891;48.164;11.572;2022-10-28T17:37:00;7.03;;;2.90;;
16600;SDS011;34891;48.164;11.572;2022-10-28T17:42:04;8.40;;;3.40;;
16600;SDS011;34891;48.164;11.572;2022-10-28T17:47:07;9.75;;;3.30;;
16600;SDS011;34891;48.164;11.572;2022-10-28T17:52:09;12.33;;;3.77;;
16600;SDS011;34891;48.164;11.572;2022-10-28T17:57:13;12.45;;;4.10;;
16600;SDS011;34891;48.164;11.572;2022-10-28T18:02:22;11.70;;;4.32;;
16600;SDS011;34891;48.164;11.572;2022-10-28T18:07:30;13.60;;;5.10;;
16600;SDS011;34891;48.164;11.572;2022-10-28T18:12:34;11.67;;;4.90;;
16600;SDS011;34891;48.164;11.572;2022-10-28T18:17:37;19.50;;;6.35;;
16600;SDS011;34891;48.164;11.572;2022-10-28T18:22:39;11.65;;;4.65;;
16600;SDS011;34891;48.164;11.572;2022-10-28T18:27:43;9.35;;;4.78;;
16600;SDS011;34891;48.164;11.572;2022-10-28T18:32:45;16.75;;;4.88;;
16600;SDS011;34891;48.164;11.572;2022-10-28T18:37:48;15.23;;;5.10;;
16600;SDS011;34891;48.164;11.572;2022-10-28T18:42:52;17.43;;;6.70;;
16600;SDS011;34891;48.164;11.572;2022-10-28T18:47:55;12.50;;;4.75;;
16600;SDS011;34891;48.164;11.572;2022-10-28T18:52:58;10.55;;;3.97;;
16600;SDS011;34891;48.164;11.572;2022-10-28T18:58:02;11.82;;;4.70;;
16600;SDS011;34891;48.164;11.572;2022-10-28T19:03:05;15.10;;;4.90;;
16600;SDS011;34891;48.164;11.572;2022-10-28T19:13:12;12.38;;;4.35;;
16600;SDS011;34891;48.164;11.572;2022-10-28T19:18:14;11.60;;;4.03;;
16600;SDS011;34891;48.164;11.572;2022-10-28T19:23:26;10.75;;;3.85;;
16600;SDS011;34891;48.164;11.572;2022-10-28T19:28:34;11.07;;;3.83;;
16600;SDS011;34891;48.164;11.572;2022-10-28T19:33:37;9.75;;;3.55;;
16600;SDS011;34891;48.164;11.572;2022-10-28T19:38:40;11.48;;;3.65;;
16600;SDS011;34891;48.164;11.572;2022-10-28T19:43:44;10.67;;;3.50;;
16600;SDS011;34891;48.164;11.572;2022-10-28T19:48:47;8.95;;;4.03;;
16600;SDS011;34891;48.164;11.572;2022-10-28T19:53:50;13.57;;;4.47;;
16600;SDS011;34891;48.164;11.572;2022-10-28T19:58:55;10.38;;;3.97;;
16600;SDS011;34891;48.164;11.572;2022-10-28T20:03:58;13.98;;;5.03;;
16600;SDS011;34891;48.164;11.572;2022-10-28T20:09:01;10.13;;;4.60;;
16600;SDS011;34891;48.164;11.572;2022-10-28T20:14:07;12.30;;;4.72;;
16600;SDS011;34891;48.164;11.572;2022-10-28T20:19:12;10.90;;;3.72;;
16600;SDS011;34891;48.164;11.572;2022-10-28T20:24:14;10.10;;;4.47;;
16600;SDS011;34891;48.164;11.572;2022-10-28T20:29:18;16.93;;;5.03;;
16600;SDS011;34891;48.164;11.572;2022-10-28T20:34:21;17.23;;;4.60;;
16600;SDS011;34891;48.164;11.572;2022-10-28T20:39:25;11.45;;;5.00;;
16600;SDS011;34891;48.164;11.572;2022-10-28T20:44:38;10.93;;;4.70;;
16600;SDS011;34891;48.164;11.572;2022-10-28T20:49:40;12.73;;;4.72;;
16600;SDS011;34891;48.164;11.572;2022-10-28T20:54:43;10.88;;;4.10;;
16600;SDS011;34891;48.164;11.572;2022-10-28T20:59:47;11.80;;;4.72;;
16600;SDS011;34891;48.164;11.572;2022-10-28T21:04:51;10.48;;;4.65;;
16600;SDS011;34891;48.164;11.572;2022-10-28T21:10:04;10.77;;;4.38;;
16600;SDS011;34891;48.164;11.572;2022-10-28T21:15:09;7.90;;;3.95;;
16600;SDS011;34891;48.164;11.572;2022-10-28T21:20:11;10.93;;;5.05;;
16600;SDS011;34891;48.164;11.572;2022-10-28T21:25:15;15.88;;;5.90;;
16600;SDS011;34891;48.164;11.572;2022-10-28T21:30:19;8.52;;;3.75;;
16600;SDS011;34891;48.164;11.572;2022-10-28T21:35:22;11.15;;;3.83;;
16600;SDS011;34891;48.164;11.572;2022-10-28T21:40:25;8.95;;;3.92;;
16600;SDS011;34891;48.164;11.572;2022-10-28T21:45:30;9.20;;;3.50;;
16600;SDS011;34891;48.164;11.572;2022-10-28T21:50:32;9.98;;;3.88;;
16600;SDS011;34891;48.164;11.572;2022-10-28T21:55:35;8.63;;;3.05;;
16600;SDS011;34891;48.164;11.572;2022-10-28T22:00:53;9.88;;;3.15;;
16600;SDS011;34891;48.164;11.572;2022-10-28T22:05:55;11.73;;;2.97;;
16600;SDS011;34891;48.164;11.572;2022-10-28T22:11:00;9.02;;;3.22;;
16600;SDS011;34891;48.164;11.572;2022-10-28T22:16:05;10.45;;;3.15;;
16600;SDS011;34891;48.164;11.572;2022-10-28T22:21:08;7.43;;;2.78;;
16600;SDS011;34891;48.164;11.572;2022-10-28T22:26:13;9.05;;;3.00;;
16600;SDS011;34891;48.164;11.572;2022-10-28T22:31:19;11.00;;;3.75;;
16600;SDS011;34891;48.164;11.572;2022-10-28T22:36:22;6.90;;;2.97;;
16600;SDS011;34891;48.164;11.572;2022-10-28T22:41:25;7.70;;;2.90;;
16600;SDS011;34891;48.164;11.572;2022-10-28T22:46:30;7.30;;;2.92;;
16600;SDS011;34891;48.164;11.572;2022-10-28T22:51:33;9.52;;;2.90;;
16600;SDS011;34891;48.164;11.572;2022-10-28T22:56:36;7.03;;;3.10;;
16600;SDS011;34891;48.164;11.572;2022-10-28T23:01:40;12.48;;;3.20;;
16600;SDS011;34891;48.164;11.572;2022-10-28T23:06:44;10.35;;;2.83;;
16600;SDS011;34891;48.164;11.572;2022-10-28T23:11:46;15.90;;;7.53;;
16600;SDS011;34891;48.164;11.572;2022-10-28T23:16:50;16.15;;;5.40;;
16600;SDS011;34891;48.164;11.572;2022-10-28T23:21:53;7.72;;;3.00;;
16600;SDS011;34891;48.164;11.572;2022-10-28T23:26:55;8.10;;;3.25;;
16600;SDS011;34891;48.164;11.572;2022-10-28T23:32:04;5.50;;;2.30;;
16600;SDS011;34891;48.164;11.572;2022-10-28T23:37:07;7.15;;;2.80;;
16600;SDS011;34891;48.164;11.572;2022-10-28T23:42:09;9.68;;;2.40;;
16600;SDS011;34891;48.164;11.572;2022-10-28T23:47:13;7.43;;;2.40;;
16600;SDS011;34891;48.164;11.572;2022-10-28T23:52:16;8.63;;;2.92;;
16600;SDS011;34891;48.164;11.572;2022-10-28T23:57:19;10.85;;;2.58;;
